• Join FlightAware (Why Join?)
  • Login
  • US Flag 
06:51PM EST


 

Airport Tracker/Info


-or-


 

Live Flight TrackerFlight Track Log ✈ N789EX ✈ 13-Mar-2014 ✈ KMWH - KBFI

Flight Track Log - Related Links

Times and Time Zones

All times are in EDT time to prevent confusion due to time zone crossing. See the N789EX flight status page for this flight to view local times or setup timezone preferences in your user account.

Time Position Orientation Groundspeed Altitude Reporting Facility
EDT Latitude Longitude Course Direction KTS MPH feet Rate Location/Type
06:21PM 47.4893 -120.0050 293° West 400 460 17,800  Level FlightAware ADS-B
06:22PM 47.5261 -120.1250 295° West 413 475 17,900 120 Climbing FlightAware ADS-B
06:22PM 47.5505 -120.2030 295° West 423 487 18,000 60 Climbing FlightAware ADS-B
06:23PM 47.5754 -120.2830 295° West 424 488 18,000  Level FlightAware ADS-B
06:23PM 47.6102 -120.3940 295° West 423 487 18,000  Level FlightAware ADS-B
06:24PM 47.6353 -120.4750 295° West 427 491 18,000  Level FlightAware ADS-B
06:25PM 47.6677 -120.5800 295° West 426 490 18,000  Level FlightAware ADS-B
06:25PM 47.6922 -120.6600 294° West 425 489 18,000  Level FlightAware ADS-B
06:26PM 47.7174 -120.7420 294° West 427 491 18,000  Level FlightAware ADS-B
06:26PM 47.7423 -120.8230 294° West 431 496 18,000  Level FlightAware ADS-B
06:27PM 47.7670 -120.9040 294° West 430 495 18,000  Level FlightAware ADS-B
06:27PM 47.7915 -120.9850 294° West 429 494 18,000  Level FlightAware ADS-B
06:28PM 47.8163 -121.0670 294° West 425 489 18,000  Level FlightAware ADS-B
06:28PM 47.8287 -121.1078 294° West 420 483 18,000  Level FlightAware ADS-B (CYWH)
06:28PM 47.8375 -121.1370 294° West 413 475 18,000 -1,680 Level FlightAware ADS-B
06:28PM 47.8457 -121.1680 289° West 407 468 17,500 -3,180 Descending FlightAware ADS-B
06:28PM 47.8509 -121.1930 285° West 408 470 16,900 -3,000 Descending FlightAware ADS-B
06:29PM 47.8556 -121.2250 280° West 403 464 16,400 -2,580 Descending FlightAware ADS-B
06:29PM 47.8580 -121.2500 277° West 401 461 16,000 -2,940 Descending FlightAware ADS-B
06:29PM 47.8632 -121.3330 275° West 400 460 14,500 -2,520 Descending FlightAware ADS-B
06:30PM 47.8684 -121.4130 275° West 388 447 13,500 -1,740 Descending FlightAware ADS-B
06:30PM 47.8733 -121.4910 275° West 368 423 12,800 -1,440 Descending FlightAware ADS-B
06:31PM 47.8779 -121.5650 275° West 351 404 12,100 -1,320 Descending FlightAware ADS-B
06:31PM 47.8824 -121.6370 275° West 335 386 11,500 -1,260 Descending FlightAware ADS-B
06:31PM 47.8838 -121.6640 272° West 328 377 11,200 -1,500 Descending FlightAware ADS-B
06:32PM 47.8828 -121.6830 261° West 325 374 11,000 -1,500 Descending FlightAware ADS-B
06:32PM 47.8814 -121.6910 256° West 323 372 10,900 -1,500 Descending FlightAware ADS-B
06:32PM 47.8792 -121.7010 249° West 317 365 10,800 -1,380 Descending FlightAware ADS-B
06:32PM 47.8768 -121.7090 244° Southwest 311 358 10,700 -1,500 Descending FlightAware ADS-B
06:32PM 47.8747 -121.7140 240° Southwest 306 352 10,600 -1,500 Descending FlightAware ADS-B
06:32PM 47.8699 -121.7240 232° Southwest 298 343 10,500 -1,200 Descending FlightAware ADS-B
06:32PM 47.8656 -121.7320 226° Southwest 291 335 10,400 -1,140 Descending FlightAware ADS-B
06:32PM 47.8448 -121.7600 223° Southwest 264 304 10,000 -840 Descending FlightAware ADS-B
06:33PM 47.8326 -121.7770 223° Southwest 258 297 9,900 -660 Descending FlightAware ADS-B
06:33PM 47.8194 -121.7950 222° Southwest 257 296 9,700 -1,200 Descending FlightAware ADS-B
06:33PM 47.8058 -121.8130 223° Southwest 262 302 9,300 -1,380 Descending FlightAware ADS-B
06:33PM 47.7999 -121.8210 224° Southwest 262 302 9,200 -1,140 Descending FlightAware ADS-B
06:33PM 47.7964 -121.8270 228° Southwest 260 299 9,100 -1,380 Descending FlightAware ADS-B
06:33PM 47.7931 -121.8330 235° Southwest 258 297 9,000 -1,680 Descending FlightAware ADS-B
06:33PM 47.7897 -121.8440 246° West 256 295 8,800 -1,680 Descending FlightAware ADS-B
06:34PM 47.7882 -121.8500 252° West 253 291 8,700 -2,040 Descending FlightAware ADS-B
06:34PM 47.7865 -121.8600 256° West 252 290 8,500 -2,400 Descending FlightAware ADS-B
06:34PM 47.7853 -121.8680 258° West 253 291 8,300 -2,640 Descending FlightAware ADS-B (CYVR)
06:34PM 47.7828 -121.8860 259° West 252 290 7,800 -2,520 Descending FlightAware ADS-B
06:34PM 47.7799 -121.9080 259° West 250 288 7,300 -2,580 Descending FlightAware ADS-B
06:34PM 47.7764 -121.9340 259° West 251 289 6,600 -2,820 Descending FlightAware ADS-B
06:35PM 47.7744 -121.9520 261° West 253 291 6,100 -2,580 Descending FlightAware ADS-B
06:35PM 47.7716 -121.9780 261° West 248 285 5,500 -2,340 Descending FlightAware ADS-B
06:35PM 47.7687 -122.0040 260° West 243 280 4,900 -2,340 Descending FlightAware ADS-B
06:35PM 47.7655 -122.0290 259° West 239 275 4,300 -2,400 Descending FlightAware ADS-B
06:36PM 47.7624 -122.0530 259° West 237 273 3,700 -1,980 Descending FlightAware ADS-B
06:36PM 47.7593 -122.0780 259° West 241 277 3,300 -1,380 Descending FlightAware ADS-B
06:36PM 47.7561 -122.1030 259° West 238 274 3,000 -960 Descending FlightAware ADS-B
06:36PM 47.7526 -122.1310 260° West 231 266 2,800 -240 Descending FlightAware ADS-B
06:37PM 47.7497 -122.1540 260° West 226 260 2,900 180 Climbing FlightAware ADS-B
06:37PM 47.7468 -122.1780 260° West 227 261 2,900  Level FlightAware ADS-B
06:37PM 47.7440 -122.2010 260° West 226 260 2,900 -300 Level FlightAware ADS-B
06:37PM 47.7424 -122.2140 260° West 224 258 2,800 -1,080 Descending FlightAware ADS-B
06:38PM 47.7388 -122.2430 260° West 224 258 2,400 -1,020 Descending FlightAware ADS-B
06:38PM 47.7342 -122.2780 259° West 230 265 2,100 -420 Descending FlightAware ADS-B
06:38PM 47.7289 -122.3170 258° West 232 267 2,100  Level FlightAware ADS-B
06:39PM 47.7257 -122.3380 253° West 229 264 2,100 -300 Level FlightAware ADS-B
06:39PM 47.7222 -122.3480 244° Southwest 224 258 2,000 -420 Descending FlightAware ADS-B
06:39PM 47.7177 -122.3570 229° Southwest 213 245 2,000  Level FlightAware ADS-B
06:39PM 47.7145 -122.3620 226° Southwest 209 241 2,000 300 Level FlightAware ADS-B
06:39PM 47.7061 -122.3750 227° Southwest 198 228 2,100 120 Climbing FlightAware ADS-B
06:40PM 47.6932 -122.3950 226° Southwest 195 224 2,100  Level FlightAware ADS-B
06:40PM 47.6805 -122.4100 215° Southwest 195 224 2,100  Level FlightAware ADS-B
06:40PM 47.6762 -122.4130 201° Southwest 193 222 2,100  Level FlightAware ADS-B
06:40PM 47.6729 -122.4140 194° South 192 221 2,100  Level FlightAware ADS-B
06:40PM 47.6660 -122.4140 182° South 190 219 2,100  Level FlightAware ADS-B
06:40PM 47.6635 -122.4140 176° South 187 215 2,100  Level FlightAware ADS-B
06:40PM 47.6579 -122.4110 164° South 185 213 2,100  Level FlightAware ADS-B
06:40PM 47.6529 -122.4070 150° Southeast 184 212 2,100  Level FlightAware ADS-B
06:41PM 47.6463 -122.4010 149° Southeast 182 209 2,100  Level FlightAware ADS-B
06:41PM 47.6349 -122.3910 150° Southeast 182 209 2,100 -240 Level FlightAware ADS-B
06:41PM 47.6262 -122.3840 150° Southeast 180 207 2,000 -840 Descending FlightAware ADS-B
06:41PM 47.6082 -122.3680 151° Southeast 163 188 1,600 -960 Descending FlightAware ADS-B
06:42PM 47.5965 -122.3590 151° Southeast 155 178 1,300 -780 Descending FlightAware ADS-B
06:42PM 47.5733 -122.3403 151° Southeast 163 188 900 -780 Descending Seattle Center
06:43PM 47.5542 -122.3236 150° Southeast 151 174 400 -840 Descending Seattle Center
06:43PM 47.5389 -122.3094 148° Southeast 156 180 100 -300 Descending Seattle Center
06:44PM 47.5144 -122.2897 151° Southeast 181 208 100  Level Seattle Center
06:44PM 47.5042 -122.2797 147° Southeast 155 178 100  Level Seattle Center
06:46PM 47.5167 -122.3000 247° West  Level FlightAware Approximate
06:53PM 47.5300 -122.3020 247° West  Level Estimated
06:54PM 47.5300 -122.3020 247° West  Level Estimated